createdAt,value
2022-10-06T00:04:29.573Z,75.67
2022-10-06T00:10:49.567Z,76.62
2022-10-06T00:17:12.636Z,77.05
2022-10-06T00:23:32.638Z,80.56
2022-10-06T00:29:55.618Z,82.27
2022-10-06T00:36:15.643Z,82.46
2022-10-06T00:42:38.608Z,82.03
2022-10-06T00:48:58.593Z,81.31
2022-10-06T00:55:21.681Z,81.14
2022-10-06T01:01:41.673Z,80.82
2022-10-06T01:08:04.584Z,80.82
2022-10-06T01:14:24.618Z,81.2
2022-10-06T01:20:47.552Z,80.86
2022-10-06T01:27:07.598Z,80.81
2022-10-06T01:33:30.730Z,80.76
2022-10-06T01:39:50.571Z,80.5
2022-10-06T01:46:13.647Z,80.29
2022-10-06T01:52:33.626Z,79.59
2022-10-06T01:58:56.621Z,79.81
2022-10-06T02:05:16.560Z,79.46
2022-10-06T02:11:39.634Z,78.83
2022-10-06T02:17:59.552Z,78.81
2022-10-06T02:24:22.575Z,78.27
2022-10-06T02:30:42.604Z,78.21
2022-10-06T02:37:05.570Z,78.52
2022-10-06T02:43:25.637Z,78.89
2022-10-06T02:49:48.609Z,78.84
2022-10-06T02:56:08.591Z,78.64
2022-10-06T03:02:31.787Z,78.16
2022-10-06T03:08:51.640Z,78.21
2022-10-06T03:15:14.696Z,78.56
2022-10-06T03:32:39.517Z,78.53
2022-10-06T03:39:02.589Z,78.51
2022-10-06T03:45:22.586Z,78.38
2022-10-06T03:51:45.617Z,78.34
2022-10-06T03:58:05.558Z,78.25
2022-10-06T04:04:28.622Z,77.52
2022-10-06T04:10:48.633Z,77.15
2022-10-06T04:17:11.743Z,77.25
2022-10-06T04:23:31.577Z,77.15
2022-10-06T04:29:54.600Z,77.15
2022-10-06T04:36:14.617Z,77.09
2022-10-06T04:42:37.623Z,76.93
2022-10-06T04:48:57.640Z,76.78
2022-10-06T04:55:20.597Z,76.79
2022-10-06T05:01:40.589Z,76.9
2022-10-06T05:08:03.599Z,76.76
2022-10-06T05:14:23.563Z,77.18
2022-10-06T05:20:46.575Z,76.87
2022-10-06T05:27:06.610Z,77.03
2022-10-06T05:33:29.593Z,77.4
2022-10-06T05:39:49.626Z,78.11
2022-10-06T05:46:12.725Z,79.26
2022-10-06T05:52:32.618Z,79.86
2022-10-06T05:58:55.616Z,78.35
2022-10-06T06:05:15.609Z,77.97
2022-10-06T06:11:38.604Z,77.83
2022-10-06T06:17:58.580Z,77.41
2022-10-06T06:24:21.606Z,77.58
2022-10-06T06:30:41.605Z,77
2022-10-06T06:37:07.654Z,76.58
2022-10-06T06:43:24.647Z,76.43
2022-10-06T06:49:47.602Z,76.37
2022-10-06T06:56:07.574Z,75.66
2022-10-06T07:02:30.669Z,75.55
2022-10-06T07:08:50.593Z,74.48
2022-10-06T07:15:13.584Z,76.11
2022-10-06T07:21:33.664Z,75.94
2022-10-06T07:27:56.663Z,74.59
2022-10-06T07:34:16.611Z,73.75
2022-10-06T07:40:42.705Z,74.06
2022-10-06T07:46:59.600Z,73.92
2022-10-06T07:53:22.625Z,72.67
2022-10-06T07:59:42.652Z,72.56
2022-10-06T08:06:05.598Z,71.63
2022-10-06T08:12:25.629Z,71.09
2022-10-06T08:18:48.695Z,70.79
2022-10-06T08:25:08.774Z,70.3
2022-10-06T08:41:18.543Z,68.48
2022-10-06T08:47:38.583Z,68.57
2022-10-06T08:54:01.701Z,67.14
2022-10-06T09:00:22.361Z,66.25
2022-10-06T09:06:44.792Z,65.12
2022-10-06T09:13:04.848Z,64.44
2022-10-06T09:19:29.992Z,64.72
2022-10-06T09:25:47.587Z,64.15
2022-10-06T09:32:10.562Z,63.74
2022-10-06T09:38:30.597Z,63.26
2022-10-06T09:44:53.580Z,61.69
2022-10-06T09:51:13.570Z,61.55
2022-10-06T09:57:36.641Z,60.67
2022-10-06T10:04:15.877Z,57.26
2022-10-06T10:10:19.685Z,55.73
2022-10-06T10:16:39.597Z,55.82
2022-10-06T10:23:02.573Z,53.61
2022-10-06T10:29:22.611Z,51.72
2022-10-06T10:35:45.641Z,53.11
2022-10-06T10:42:05.608Z,51.45
2022-10-06T10:48:28.615Z,49.91
2022-10-06T10:54:48.631Z,51.47
2022-10-06T11:01:11.627Z,49.53
2022-10-06T11:07:31.603Z,46.14
2022-10-06T11:13:54.640Z,49.61
2022-10-06T11:20:14.590Z,47.06
2022-10-06T11:26:37.594Z,46.32
2022-10-06T11:32:57.624Z,47.69
2022-10-06T11:39:20.579Z,46.12
2022-10-06T11:45:40.678Z,45.21
2022-10-06T11:52:05.861Z,44.66
2022-10-06T11:58:41.701Z,45.28
2022-10-06T12:04:46.593Z,42.76
2022-10-06T12:11:06.634Z,43.66
2022-10-06T12:17:29.650Z,42.06
2022-10-06T12:23:49.603Z,42.13
2022-10-06T12:30:12.734Z,41.48
2022-10-06T12:36:32.568Z,41.35
2022-10-06T12:42:55.612Z,41.43
2022-10-06T12:49:15.670Z,40.6
2022-10-06T12:55:38.587Z,39.78
2022-10-06T13:01:58.627Z,40.53
2022-10-06T13:08:21.619Z,40.18
2022-10-06T13:14:41.595Z,40.61
2022-10-06T13:21:04.619Z,39.33
2022-10-06T13:27:24.589Z,40.43
2022-10-06T13:43:52.522Z,40.64
2022-10-06T13:50:15.968Z,41.86
2022-10-06T13:56:35.569Z,41.06
2022-10-06T14:02:55.717Z,40.71
2022-10-06T14:09:18.563Z,41.83
2022-10-06T14:15:38.622Z,42.86
2022-10-06T14:22:01.658Z,41.73
2022-10-06T14:28:21.648Z,40.94
2022-10-06T14:34:44.615Z,41.9
2022-10-06T14:41:04.617Z,41.22
2022-10-06T14:47:27.650Z,41.7
2022-10-06T14:53:47.779Z,42.35
2022-10-06T15:00:10.625Z,42.09
2022-10-06T15:06:30.590Z,42.65
2022-10-06T15:12:53.576Z,42.58
2022-10-06T15:19:13.635Z,43.33
2022-10-06T15:25:36.565Z,42.78
2022-10-06T15:31:56.646Z,43.46
2022-10-06T15:38:19.907Z,44.4
2022-10-06T15:44:39.589Z,44.23
2022-10-06T15:51:02.600Z,44.6
2022-10-06T15:57:22.718Z,44.77
2022-10-06T16:03:45.658Z,47.78
2022-10-06T16:10:05.561Z,46.96
2022-10-06T16:16:28.685Z,47.41
2022-10-06T16:22:48.626Z,50.89
2022-10-06T16:29:11.690Z,54.39
2022-10-06T16:35:31.614Z,55.95
2022-10-06T16:41:54.609Z,57.96
2022-10-06T16:48:14.587Z,57.89
2022-10-06T16:54:37.604Z,60.3
2022-10-06T17:00:57.670Z,61.44
2022-10-06T17:07:20.659Z,62.7
2022-10-06T17:13:40.606Z,64.1
2022-10-06T17:20:03.614Z,64.79
2022-10-06T17:26:23.550Z,65.63
2022-10-06T17:32:46.679Z,65.9
2022-10-06T17:39:06.600Z,66.06
2022-10-06T17:45:29.632Z,68.22
2022-10-06T17:51:49.718Z,67.67
2022-10-06T17:58:16.485Z,68.88
2022-10-06T18:04:32.567Z,70.17
2022-10-06T18:10:59.093Z,70.14
2022-10-06T18:17:15.574Z,70.74
2022-10-06T18:23:38.654Z,72.07
2022-10-06T18:29:58.579Z,72.73
2022-10-06T18:46:26.589Z,75.58
2022-10-06T18:52:46.591Z,75.53
2022-10-06T18:59:09.602Z,75.33
2022-10-06T19:05:29.692Z,76.64
2022-10-06T19:11:52.586Z,76.43
2022-10-06T19:18:12.583Z,75.93
2022-10-06T19:24:35.622Z,76.32
2022-10-06T19:30:55.637Z,76.02
2022-10-06T19:37:18.576Z,76.45
2022-10-06T19:43:38.580Z,77.05
2022-10-06T19:50:04.905Z,77.15
2022-10-06T19:56:21.815Z,77.16
2022-10-06T20:02:44.603Z,77.12
2022-10-06T20:09:04.647Z,78.07
2022-10-06T20:15:27.556Z,78.65
2022-10-06T20:21:47.608Z,78.1
2022-10-06T20:28:10.732Z,79.24
2022-10-06T20:34:30.558Z,79.08
2022-10-06T20:40:53.670Z,79.17
2022-10-06T20:47:13.613Z,79.29
2022-10-06T20:53:36.613Z,79.28
2022-10-06T20:59:56.744Z,79.31
2022-10-06T21:06:19.752Z,79.45
2022-10-06T21:12:40.795Z,79.91
2022-10-06T21:19:04.871Z,80.25
2022-10-06T21:25:25.792Z,80.51
2022-10-06T21:31:49.771Z,80.52
2022-10-06T21:38:10.748Z,80.75
2022-10-06T21:44:33.766Z,80.49
2022-10-06T21:50:54.706Z,80.44
2022-10-06T21:57:17.782Z,80.63
2022-10-06T22:20:15.785Z,80.87
2022-10-06T22:26:36.713Z,81.27
2022-10-06T22:32:59.788Z,81.59
2022-10-06T22:39:20.834Z,81.76
2022-10-06T22:45:44.770Z,81.59
2022-10-06T22:52:05.757Z,81.58
2022-10-06T22:58:29.800Z,82.23
2022-10-06T23:04:50.763Z,82.14
2022-10-06T23:11:14.816Z,82.57
2022-10-06T23:17:35.766Z,82.43
2022-10-06T23:23:58.722Z,82.43
2022-10-06T23:30:18.761Z,82.39
2022-10-06T23:36:42.741Z,82.69
2022-10-06T23:43:02.811Z,82.97
2022-10-06T23:49:26.805Z,82.26
2022-10-06T23:55:47.755Z,82.71
